DTTALIEE

Guest
Details From DTTA - CARTHAGE
To LIEE - Cagliari Elmas
Flight Number -
Tags generated
Created
Modified
Stats Distance 155 nm / 287 km
Max Altitude 18,900 ft / 5,761 m
Waypoints 4
Social Downloads 1
Likes 0
Share VATSIM

Download

Looking for another format? Having issues loading an existing format? Contact us
Advertisement - Login to hide

Notes

Basic altitude profile: - Ascent Rate: 2500ft/min - Ascent Speed: 250kts - Cruise Altitude: 35000ft - Cruise Speed: 420kts - Descent Rate: 1500ft/min - Descent Speed: 250kts Options: - Use NATs: yes - Use PACOTS: yes - Use low airways: yes - Use high airways: yes

Route

DTTA TUC M731 TANIT LIEE

ID Type Via Altitude Latitude Longitude Leg Dist Tot Dist Heading (true) Name
O DTTA APT - 0 ft / 0 m 36.85127˚ 10.23003˚ - 0 nm - CARTHAGE
TUC VOR - 0 ft / 0 m 36.85158˚ 10.23033˚ 0 nm 0 nm 38° / 38° TUNIS VOR-DME
TANIT FIX M731 (AWY-LO) 18,900 ft / 5,761 m 37.75417˚ 9.94750˚ 55 nm 55 nm 346° / 346° -
O LIEE APT - 0 ft / 0 m 39.25147˚ 9.05429˚ 99 nm 155 nm 335° / 335° Cagliari Elmas

Altitude Profile

Advertisement - Login to hide

DTTA

Details ICAO DTTA (TUN)
Name CARTHAGE
Region Tunisia
Timezone Africa/Tunis (UTC+1.0)
Stats Elevation 22 ft / 7 m (AMSL)
Location 36.851267° 10.230027°
Runways 2
Magnetic Variation 2.446° E

METAR

DTTA 262200Z 12006KT 070V150 9999 FEW026 22/14 Q1016 NOSIG

Decode

TAF

TAF DTTA 261100Z 2618/2718 10010KT 9999 FEW030

Decode

Departure Runways

ID Width Length Bearing (true) Bearing (mag) Surface Threshold Offset Overrun Length
01 148 ft / 45 m 10,502 ft / 3,201 m 12.29° 9.84° Asphalt 0 ft / 0 m 197 ft / 60 m
11 148 ft / 45 m 9,345 ft / 2,848 m 112.55° 110.10° Asphalt 0 ft / 0 m 643 ft / 196 m
19 148 ft / 45 m 10,502 ft / 3,201 m 192.29° 189.84° Asphalt 0 ft / 0 m 197 ft / 60 m
29 148 ft / 45 m 9,345 ft / 2,848 m 292.57° 290.12° Asphalt 657 ft / 200 m 197 ft / 60 m

LIEE

Details ICAO LIEE (CAG)
Name Cagliari Elmas
Region Italy
Timezone Europe/Rome (UTC+2.0)
Stats Elevation 13 ft / 4 m (AMSL)
Location 39.251475° 9.054291°
Runways 1
Magnetic Variation 2.343° E

METAR

LIEE 262150Z 19010KT CAVOK 21/17 Q1017

Decode

TAF

TAF LIEE 261700Z 2618/2718 15013KT CAVOK

Decode

Destination Runways

ID Width Length Bearing (true) Bearing (mag) Surface Threshold Offset Overrun Length
14 148 ft / 45 m 9,157 ft / 2,791 m 138.08° 135.74° Asphalt 0 ft / 0 m 187 ft / 57 m
32 148 ft / 45 m 9,157 ft / 2,791 m 318.09° 315.75° Asphalt 0 ft / 0 m 0 ft / 0 m

Approach Navaids

Runway Type Ident Frequency Range Bearing (true) Bearing (mag) Slope Elevation
32 Localiser IEL 109.50 MHz 18 nm / 33 km 318.12° 315.77° - 7 ft / 2 m (AMSL)
32 Glidescope IEL 109.50 MHz 10 nm / 19 km 318.08° 315.74° 3.00° 9 ft / 3 m (AMSL)
32 DME IEL 109.50 MHz 18 nm / 33 km - - - 26 ft / 8 m (AMSL)

Popular Alternatives